Corpus Christi, TX

7:26 PM CST on December 27, 2014 (GMT -0600)
Texas State Aquarium | Change Station
CLOSE
Current Station
Personal Weather Station
Location: Corpus Christi, TX
Elevation: 36 ft
Nearby Weather Stations

Elev 36 ft 27.81 °N, 97.39 °W | Updated 3 seconds ago

Overcast
Overcast
52.4 °F
Feels Like 52.4 °F
N
14.8
Wind Variable Wind from West
Gusts 14.8 mph

Today
High -- | Low -- °F
--% Chance of Precip.
Yesterday
High -- | Low -- °F
Precip. -- in
7:18 AM 5:42 PM
Waxing Crescent, 42% visible
Pressure 30.12 in
Visibility 10.0 miles
Clouds Scattered Clouds 1700 ft
Overcast 1900 ft
Dew Point 50 °F
Humidity 91%
Rainfall 0.00 in
Snow Depth Not available.
UV 0.0 out of 12
Pollen 7.30 out of 12
Air Quality Not available.
Flu Activity Not available.
METAR KCRP 280051Z 01016KT 10SM -RA SCT017 OVC019 11/07 A3012 RMK AO2 PK WND 01026/0004 RAB33 SLP198 P0000 T01110072

More Conditions Fewer Conditions

Pressure 30.12 in
Visibility 10.0 miles
Clouds Scattered Clouds 1700 ft
Overcast 1900 ft
Dew Point 50 °F
Humidity 91%
Rainfall 0.00 in
Snow Depth Not available.
UV 0.0 out of 12
Pollen 7.30 out of 12
Air Quality Not available.
Flu Activity Not available.
METAR KCRP 280051Z 01016KT 10SM -RA SCT017 OVC019 11/07 A3012 RMK AO2 PK WND 01026/0004 RAB33 SLP198 P0000 T01110072

More Conditions Fewer Conditions

Nowcast | as of 6:16 PM CST on December 27, 2014

Through 830 PM CST...isolated showers will continue to affect portions of south Texas and the middle Texas coastal waters. Rainfall should generally be light with rainfall amounts less than a few hundredths of an inch an hour.

×

10-Day Weather Forecast

Almanac

Astronomy

Dec. 27, 2014 Rise Set
Actual Time
Civil Twilight
Nautical Twilight
Astronomical Twilight
Moon
Length of Visible Light
Length of Day
Tomorrow will be .
, % of the Moon is Illuminated

Today's Extremes

State Highs State Lows

Community

WunderPhotos

Upload Photos

1,781,120 photos uploaded!

WunderBlogs® & News

Nearby

Air Quality

  Air Quality AQ Index Pollutant
Not available.

Snow Depth

Station Depth Elevation

Earthquake Activity

City Distance Mag. Time & Date
Minimum magnitude displayed is 2.5.

Coastal Water Temperatures

Place Temperature

Nearby Weather Stations